KFBR

Fort Bridger Airport

Fort Bridger, Wyoming, USA
METAR KFBR 140435Z AUTO 26010KT 10SM CLR M01/M10 A3054 RMK AO2 T10101096
Observed Flight Rules
Nov-14 @ 04:35 UTC (23 minutes ago) Visual Flight Rules
Wind Visibility Clouds
260° at 10 knots 10 miles
  • Clear skies
Temperatures Readings
Current -1°C / 30°F
Dewpoint -10°C / 14°F
Humidity 51%
Altimeter 30.54" Hg
Pressure 1034 hPa
Elevation 2144
METAR KFBR 140435Z AUTO 26010KT 10SM CLR M01/M10 A3054 RMK AO2 T10101096
Observed Flight Rules
Nov-14 @ 04:35 UTC
(23 minutes ago)
VFR
Wind Visibility
260° at 10 knots 10 miles
Clouds
  • Clear skies
Temperature Dewpoint
-1°C / 30°F -10°C / 14°F
Humidity Altimeter Pressure
51% 30.54" Hg 1034 hPa